createdAt,value
2022-07-28T00:00:56.906Z,12.00
2022-07-28T00:03:23.857Z,11.90
2022-07-28T00:05:57.207Z,11.90
2022-07-28T00:08:30.214Z,11.90
2022-07-28T00:10:56.834Z,11.80
2022-07-28T00:13:23.506Z,11.80
2022-07-28T00:15:56.315Z,11.80
2022-07-28T00:18:36.234Z,11.70
2022-07-28T00:21:09.253Z,11.70
2022-07-28T00:23:39.067Z,11.70
2022-07-28T00:26:14.208Z,11.70
2022-07-28T00:28:41.235Z,11.70
2022-07-28T00:31:14.306Z,11.70
2022-07-28T00:33:48.186Z,11.60
2022-07-28T00:36:14.826Z,11.60
2022-07-28T00:38:48.825Z,11.50
2022-07-28T00:41:23.207Z,11.60
2022-07-28T00:43:58.282Z,11.60
2022-07-28T00:46:25.426Z,11.50
2022-07-28T00:48:54.972Z,11.50
2022-07-28T00:51:31.199Z,11.50
2022-07-28T00:54:05.230Z,11.40
2022-07-28T00:56:33.230Z,11.40
2022-07-28T00:59:00.530Z,11.40
2022-07-28T01:01:34.364Z,11.30
2022-07-28T01:04:09.236Z,11.30
2022-07-28T01:07:31.306Z,11.30
2022-07-28T01:10:16.666Z,11.30
2022-07-28T01:13:05.233Z,11.20
2022-07-28T01:15:40.046Z,11.20
2022-07-28T01:18:19.461Z,11.20
2022-07-28T01:21:08.051Z,11.20
2022-07-28T01:24:00.189Z,11.10
2022-07-28T01:26:54.209Z,11.10
2022-07-28T01:29:42.589Z,11.10
2022-07-28T01:32:38.381Z,11.00
2022-07-28T01:35:24.488Z,11.00
2022-07-28T01:38:01.460Z,10.90
2022-07-28T01:40:33.405Z,10.90
2022-07-28T01:43:09.210Z,10.90
2022-07-28T01:45:42.404Z,10.90
2022-07-28T01:48:18.495Z,10.80
2022-07-28T01:50:48.714Z,10.80
2022-07-28T01:53:23.248Z,10.80
2022-07-28T01:55:57.468Z,10.70
2022-07-28T01:58:33.493Z,10.70
2022-07-28T02:01:03.474Z,10.70
2022-07-28T02:03:31.577Z,10.60
2022-07-28T02:06:09.208Z,10.60
2022-07-28T02:08:44.245Z,10.60
2022-07-28T02:11:29.694Z,10.60
2022-07-28T02:14:04.264Z,10.50
2022-07-28T02:16:32.132Z,10.50
2022-07-28T02:19:00.549Z,10.50
2022-07-28T02:21:37.261Z,10.40
2022-07-28T02:24:06.038Z,10.40
2022-07-28T02:26:36.812Z,10.30
2022-07-28T02:29:27.638Z,10.30
2022-07-28T02:32:27.328Z,10.30
2022-07-28T02:35:09.672Z,10.30
2022-07-28T02:37:40.098Z,10.30
2022-07-28T02:40:20.202Z,10.30
2022-07-28T02:42:56.214Z,10.30
2022-07-28T02:45:27.170Z,10.20
2022-07-28T02:48:04.288Z,10.20
2022-07-28T02:50:31.240Z,10.20
2022-07-28T02:53:15.027Z,10.20
2022-07-28T02:55:44.027Z,10.20
2022-07-28T02:58:18.222Z,10.20
2022-07-28T03:00:46.006Z,10.10
2022-07-28T03:03:20.208Z,10.10
2022-07-28T03:06:01.366Z,10.10
2022-07-28T03:08:35.385Z,10.10
2022-07-28T03:11:10.536Z,10.00
2022-07-28T03:13:44.825Z,10.00
2022-07-28T03:16:11.937Z,10.00
2022-07-28T03:18:39.061Z,10.00
2022-07-28T03:21:12.207Z,10.00
2022-07-28T03:23:50.214Z,10.00
2022-07-28T03:26:41.296Z,10.00
2022-07-28T03:29:17.230Z,10.00
2022-07-28T03:31:47.972Z,10.00
2022-07-28T03:34:15.807Z,10.00
2022-07-28T03:36:53.234Z,10.00
2022-07-28T03:39:32.590Z,10.00
2022-07-28T03:42:01.648Z,10.00
2022-07-28T03:44:29.944Z,10.00
2022-07-28T03:47:03.215Z,10.00
2022-07-28T03:49:36.236Z,10.00
2022-07-28T03:52:09.269Z,10.00
2022-07-28T03:54:35.977Z,10.00
2022-07-28T03:57:09.267Z,10.00
2022-07-28T03:59:42.265Z,10.00
2022-07-28T04:02:09.037Z,9.90
2022-07-28T04:05:04.260Z,10.00
2022-07-28T04:07:37.237Z,10.00
2022-07-28T04:10:11.236Z,10.10
2022-07-28T04:12:47.963Z,10.10
2022-07-28T04:15:23.510Z,10.10
2022-07-28T04:17:58.266Z,10.10
2022-07-28T04:20:33.254Z,10.20
2022-07-28T04:22:59.899Z,10.20
2022-07-28T04:25:27.592Z,10.20
2022-07-28T04:28:02.279Z,10.20
2022-07-28T04:30:32.262Z,10.30
2022-07-28T04:32:59.660Z,10.30
2022-07-28T04:35:35.246Z,10.40
2022-07-28T04:38:02.150Z,10.40
2022-07-28T04:40:35.259Z,10.50
2022-07-28T04:43:04.045Z,10.60
2022-07-28T04:45:37.344Z,10.60
2022-07-28T04:48:11.261Z,10.60
2022-07-28T04:50:40.633Z,10.70
2022-07-28T04:53:07.463Z,10.80
2022-07-28T04:55:41.226Z,10.80
2022-07-28T04:58:14.274Z,10.90
2022-07-28T05:00:43.295Z,10.90
2022-07-28T05:03:09.963Z,11.00
2022-07-28T05:05:43.201Z,11.00
2022-07-28T05:08:13.837Z,11.10
2022-07-28T05:10:40.448Z,11.20
2022-07-28T05:13:14.236Z,11.30
2022-07-28T05:15:47.255Z,11.40
2022-07-28T05:18:20.205Z,11.40
2022-07-28T05:20:53.218Z,11.60
2022-07-28T05:23:19.924Z,11.70
2022-07-28T05:25:53.198Z,11.80
2022-07-28T05:28:26.306Z,11.90
2022-07-28T05:30:59.266Z,12.00
2022-07-28T05:33:32.290Z,12.10
2022-07-28T05:36:05.213Z,12.10
2022-07-28T05:38:38.259Z,12.20
2022-07-28T05:41:13.274Z,12.30
2022-07-28T05:43:40.078Z,12.40
2022-07-28T05:46:07.137Z,12.50
2022-07-28T05:48:40.255Z,12.60
2022-07-28T05:51:07.057Z,12.70
2022-07-28T05:53:33.749Z,12.80
2022-07-28T05:56:07.233Z,13.00
2022-07-28T05:58:40.239Z,13.10
2022-07-28T06:01:06.945Z,13.20
2022-07-28T06:03:39.772Z,13.30
2022-07-28T06:06:16.959Z,13.40
2022-07-28T06:08:45.073Z,13.60
2022-07-28T06:11:21.852Z,13.70
2022-07-28T06:13:50.531Z,13.90
2022-07-28T06:16:17.366Z,14.00
2022-07-28T06:18:50.189Z,14.10
2022-07-28T06:21:23.227Z,14.30
2022-07-28T06:23:49.905Z,14.40
2022-07-28T06:26:23.831Z,14.50
2022-07-28T06:28:50.611Z,14.60
2022-07-28T06:31:24.363Z,14.80
2022-07-28T06:33:51.047Z,14.90
2022-07-28T06:36:17.744Z,15.00
2022-07-28T06:38:51.234Z,15.10
2022-07-28T06:41:24.210Z,15.30
2022-07-28T06:43:59.215Z,15.40
2022-07-28T06:46:28.268Z,15.50
2022-07-28T06:49:01.265Z,15.50
2022-07-28T06:51:34.217Z,15.60
2022-07-28T06:54:10.734Z,15.70
2022-07-28T06:56:44.272Z,15.80
2022-07-28T06:59:16.558Z,16.00
2022-07-28T07:01:50.355Z,16.10
2022-07-28T07:04:17.615Z,16.20
2022-07-28T07:06:57.213Z,16.30
2022-07-28T07:09:23.960Z,16.50
2022-07-28T07:11:50.597Z,16.60
2022-07-28T07:14:24.255Z,16.70
2022-07-28T07:16:51.030Z,16.80
2022-07-28T07:19:24.226Z,16.80
2022-07-28T07:21:51.344Z,16.90
2022-07-28T07:24:18.403Z,16.90
2022-07-28T07:26:51.282Z,17.00
2022-07-28T07:29:18.278Z,17.10
2022-07-28T07:31:52.962Z,17.10
2022-07-28T07:34:27.226Z,17.20
2022-07-28T07:37:00.254Z,17.30
2022-07-28T07:39:27.060Z,17.50
2022-07-28T07:41:53.706Z,17.60
2022-07-28T07:44:27.230Z,17.60
2022-07-28T07:47:00.349Z,17.60
2022-07-28T07:49:43.403Z,17.60
2022-07-28T07:52:19.552Z,17.70
2022-07-28T07:54:46.352Z,17.80
2022-07-28T07:57:19.243Z,17.80
2022-07-28T07:59:45.926Z,17.80
2022-07-28T08:02:12.648Z,17.90
2022-07-28T08:04:46.372Z,18.10
2022-07-28T08:07:22.213Z,18.20
2022-07-28T08:09:56.250Z,18.30
2022-07-28T08:12:25.245Z,18.50
2022-07-28T08:14:52.678Z,18.60
2022-07-28T08:17:26.484Z,18.70
2022-07-28T08:19:53.619Z,18.90
2022-07-28T08:22:20.522Z,19.00
2022-07-28T08:24:54.294Z,19.20
2022-07-28T08:27:27.288Z,19.20
2022-07-28T08:29:53.946Z,19.20
2022-07-28T08:32:27.771Z,19.30
2022-07-28T08:35:30.255Z,19.40
2022-07-28T08:37:47.980Z,19.50
2022-07-28T08:40:25.768Z,19.70
2022-07-28T08:43:13.322Z,19.70
2022-07-28T08:45:48.271Z,19.80
2022-07-28T08:48:24.270Z,19.90
2022-07-28T08:50:52.112Z,19.90
2022-07-28T08:53:21.475Z,20.00
2022-07-28T08:55:56.313Z,20.10
2022-07-28T08:58:23.060Z,20.30
2022-07-28T09:00:56.285Z,20.40
2022-07-28T09:03:30.404Z,20.60
2022-07-28T09:06:17.317Z,20.80
2022-07-28T09:08:43.960Z,20.90
2022-07-28T09:11:10.655Z,20.90
2022-07-28T09:13:44.234Z,20.90
2022-07-28T09:16:21.355Z,20.90
2022-07-28T09:18:48.016Z,20.80
2022-07-28T09:21:15.487Z,20.90
2022-07-28T09:23:51.387Z,21.00
2022-07-28T09:26:18.541Z,21.10
2022-07-28T09:28:50.083Z,21.00
2022-07-28T09:31:24.342Z,21.00
2022-07-28T09:34:07.282Z,21.10
2022-07-28T09:36:46.261Z,20.90
2022-07-28T09:39:36.300Z,20.90
2022-07-28T09:42:09.338Z,21.10
2022-07-28T09:44:36.041Z,21.10
2022-07-28T09:47:28.508Z,21.10
2022-07-28T09:50:02.334Z,21.10
2022-07-28T09:52:41.262Z,20.90
2022-07-28T09:55:11.776Z,20.60
2022-07-28T09:57:46.330Z,20.90
2022-07-28T10:00:27.823Z,21.10
2022-07-28T10:03:01.364Z,21.10
2022-07-28T10:05:52.032Z,21.10
2022-07-28T10:08:42.811Z,21.00
2022-07-28T10:11:17.302Z,21.00
2022-07-28T10:13:57.026Z,20.90
2022-07-28T10:16:33.342Z,21.00
2022-07-28T10:19:09.253Z,21.00
2022-07-28T10:21:44.434Z,21.30
2022-07-28T10:24:27.231Z,21.80
2022-07-28T10:26:57.050Z,22.00
2022-07-28T10:29:24.712Z,22.20
2022-07-28T10:32:05.233Z,22.40
2022-07-28T10:34:36.067Z,22.50
2022-07-28T10:37:11.264Z,22.70
2022-07-28T10:39:49.264Z,22.60
2022-07-28T10:42:16.485Z,22.40
2022-07-28T10:44:52.229Z,22.30
2022-07-28T10:47:20.447Z,22.50
2022-07-28T10:49:55.250Z,23.00
2022-07-28T10:52:47.144Z,23.20
2022-07-28T10:55:43.299Z,23.70
2022-07-28T10:58:25.275Z,23.90
2022-07-28T11:01:06.506Z,23.60
2022-07-28T11:03:44.969Z,23.70
2022-07-28T11:06:53.251Z,24.20
2022-07-28T11:09:19.888Z,24.70
2022-07-28T11:11:47.714Z,24.90
2022-07-28T11:14:33.283Z,25.20
2022-07-28T11:17:10.110Z,25.60
2022-07-28T11:20:01.139Z,25.90
2022-07-28T11:22:36.979Z,25.90
2022-07-28T11:25:19.944Z,25.70
2022-07-28T11:27:52.115Z,25.70
2022-07-28T11:30:25.344Z,25.70
2022-07-28T11:32:55.086Z,25.50
2022-07-28T11:35:36.268Z,25.60
2022-07-28T11:38:09.297Z,25.60
2022-07-28T11:40:41.318Z,26.10
2022-07-28T11:43:37.925Z,26.30
2022-07-28T11:46:10.104Z,27.00
2022-07-28T11:48:45.415Z,27.40
2022-07-28T11:51:13.543Z,27.70
2022-07-28T11:53:48.284Z,28.00
2022-07-28T11:56:22.236Z,27.80
2022-07-28T11:59:10.621Z,27.30
2022-07-28T12:01:38.186Z,27.50
2022-07-28T12:04:18.505Z,27.90
2022-07-28T12:06:53.308Z,27.90
2022-07-28T12:09:42.614Z,28.20
2022-07-28T12:12:09.681Z,28.50
2022-07-28T12:14:47.255Z,28.60
2022-07-28T12:17:15.022Z,29.00
2022-07-28T12:19:49.243Z,29.30
2022-07-28T12:22:16.029Z,29.90
2022-07-28T12:24:49.405Z,30.30
2022-07-28T12:27:31.725Z,30.20
2022-07-28T12:30:07.356Z,30.50
2022-07-28T12:32:42.269Z,30.70
2022-07-28T12:35:16.383Z,30.50
2022-07-28T12:37:48.051Z,30.70
2022-07-28T12:40:28.339Z,30.40
2022-07-28T12:42:55.005Z,29.70
2022-07-28T12:45:21.815Z,29.50
2022-07-28T12:47:55.302Z,29.80
2022-07-28T12:50:22.070Z,30.20
2022-07-28T12:53:16.289Z,30.60
2022-07-28T12:55:43.966Z,30.80
2022-07-28T12:58:34.281Z,30.90
2022-07-28T13:01:01.449Z,31.30
2022-07-28T13:03:29.293Z,31.40
2022-07-28T13:06:10.339Z,31.60
2022-07-28T13:08:52.281Z,31.70
2022-07-28T13:11:43.329Z,32.00
2022-07-28T13:14:22.041Z,30.90
2022-07-28T13:16:58.042Z,29.80
2022-07-28T13:19:31.283Z,29.60
2022-07-28T13:22:04.039Z,29.60
2022-07-28T13:24:40.287Z,29.90
2022-07-28T13:27:13.384Z,30.50
2022-07-28T13:29:46.276Z,30.60
2022-07-28T13:32:13.053Z,30.80
2022-07-28T13:34:46.303Z,30.60
2022-07-28T13:37:13.058Z,30.30
2022-07-28T13:39:49.536Z,30.30
2022-07-28T13:42:19.455Z,30.10
2022-07-28T13:44:46.119Z,30.10
2022-07-28T13:47:20.281Z,29.90
2022-07-28T13:49:53.273Z,29.90
2022-07-28T13:52:33.286Z,29.80
2022-07-28T13:55:10.297Z,29.40
2022-07-28T13:57:37.049Z,29.10
2022-07-28T14:00:13.271Z,29.50
2022-07-28T14:05:38.426Z,30.30
2022-07-28T14:08:18.550Z,31.20
2022-07-28T14:10:56.274Z,31.70
2022-07-28T14:13:23.151Z,32.10
2022-07-28T14:16:07.780Z,32.10
2022-07-28T14:18:37.636Z,31.80
2022-07-28T14:21:12.321Z,31.40
2022-07-28T14:26:36.397Z,31.00
2022-07-28T14:29:11.866Z,31.00
2022-07-28T14:31:38.748Z,30.70
2022-07-28T14:34:12.698Z,30.90
2022-07-28T14:36:39.627Z,30.90
2022-07-28T14:39:13.347Z,31.00
2022-07-28T14:41:40.159Z,31.10
2022-07-28T14:44:15.376Z,31.50
2022-07-28T14:46:50.685Z,31.70
2022-07-28T14:49:24.333Z,31.70
2022-07-28T14:51:51.072Z,31.90
2022-07-28T14:54:18.203Z,32.00
2022-07-28T14:56:51.301Z,32.30
2022-07-28T14:59:17.949Z,32.60
2022-07-28T15:01:44.815Z,33.20
2022-07-28T15:04:20.530Z,33.50
2022-07-28T15:07:00.333Z,33.90
2022-07-28T15:09:27.303Z,34.00
2022-07-28T15:11:54.071Z,33.80
2022-07-28T15:14:27.297Z,33.70
2022-07-28T15:16:54.118Z,34.60
2022-07-28T15:19:27.350Z,34.70
2022-07-28T15:21:53.997Z,34.60
2022-07-28T15:24:28.496Z,34.60
2022-07-28T15:27:01.285Z,33.80
2022-07-28T15:29:36.280Z,33.80
2022-07-28T15:32:12.977Z,33.70
2022-07-28T15:34:39.871Z,33.50
2022-07-28T15:37:13.335Z,33.20
2022-07-28T15:39:44.757Z,33.20
2022-07-28T15:42:18.291Z,32.40
2022-07-28T15:44:51.285Z,32.30
2022-07-28T15:47:17.939Z,31.80
2022-07-28T15:49:51.342Z,31.70
2022-07-28T15:52:18.106Z,31.30
2022-07-28T15:54:51.323Z,30.70
2022-07-28T15:57:19.659Z,30.50
2022-07-28T15:59:53.331Z,30.40
2022-07-28T16:02:26.398Z,30.50
2022-07-28T16:04:59.458Z,30.60
2022-07-28T16:07:35.173Z,30.80
2022-07-28T16:10:09.354Z,30.80
2022-07-28T16:12:42.359Z,30.70
2022-07-28T16:15:15.310Z,30.70
2022-07-28T16:17:42.217Z,31.10
2022-07-28T16:20:10.409Z,31.10
2022-07-28T16:22:45.358Z,31.00
2022-07-28T16:25:16.625Z,30.30
2022-07-28T16:27:44.537Z,28.90
2022-07-28T16:30:19.341Z,28.90
2022-07-28T16:32:46.424Z,30.00
2022-07-28T16:35:14.075Z,30.70
2022-07-28T16:37:47.361Z,31.00
2022-07-28T16:40:20.334Z,30.70
2022-07-28T16:42:48.776Z,30.70
2022-07-28T16:45:22.335Z,30.40
2022-07-28T16:47:49.025Z,30.80
2022-07-28T16:50:17.422Z,31.10
2022-07-28T16:52:50.315Z,30.80
2022-07-28T16:55:24.311Z,30.30
2022-07-28T16:57:52.137Z,30.30
2022-07-28T17:00:20.317Z,29.60
2022-07-28T17:02:53.344Z,29.50
2022-07-28T17:05:20.332Z,29.70
2022-07-28T17:08:00.313Z,30.00
2022-07-28T17:10:27.415Z,30.20
2022-07-28T17:12:54.941Z,30.00
2022-07-28T17:15:28.309Z,29.40
2022-07-28T17:18:02.326Z,29.40
2022-07-28T17:20:29.003Z,29.20
2022-07-28T17:22:55.776Z,28.80
2022-07-28T17:25:52.340Z,28.40
2022-07-28T17:28:16.018Z,28.40
2022-07-28T17:30:49.365Z,28.50
2022-07-28T17:33:16.105Z,28.20
2022-07-28T17:35:49.349Z,27.90
2022-07-28T17:38:32.811Z,28.00
2022-07-28T17:41:10.318Z,28.10
2022-07-28T17:43:39.918Z,28.30
2022-07-28T17:46:10.534Z,28.40
2022-07-28T17:48:45.338Z,28.00
2022-07-28T17:51:12.054Z,27.90
2022-07-28T17:53:39.171Z,27.90
2022-07-28T17:56:13.380Z,27.60
2022-07-28T17:58:40.661Z,27.10
2022-07-28T18:01:11.974Z,26.70
2022-07-28T18:03:57.719Z,26.50
2022-07-28T18:06:41.433Z,26.40
2022-07-28T18:09:22.340Z,26.10
2022-07-28T18:11:56.398Z,25.80
2022-07-28T18:14:26.737Z,25.70
2022-07-28T18:16:53.561Z,25.50
2022-07-28T18:19:26.522Z,25.30
2022-07-28T18:21:59.336Z,25.40
2022-07-28T18:24:26.346Z,25.50
2022-07-28T18:27:00.331Z,25.50
2022-07-28T18:29:38.313Z,25.30
2022-07-28T18:32:14.333Z,25.20
2022-07-28T18:34:48.526Z,25.10
2022-07-28T18:37:21.344Z,24.70
2022-07-28T18:39:48.808Z,24.50
2022-07-28T18:42:16.011Z,24.40
2022-07-28T18:44:49.338Z,24.20
2022-07-28T18:47:16.018Z,24.00
2022-07-28T18:49:49.334Z,23.80
2022-07-28T18:52:17.484Z,23.70
2022-07-28T18:54:50.405Z,23.50
2022-07-28T18:57:17.396Z,23.10
2022-07-28T18:59:47.762Z,22.80
2022-07-28T19:02:26.298Z,22.70
2022-07-28T19:04:53.192Z,22.50
2022-07-28T19:07:33.350Z,22.30
2022-07-28T19:10:07.339Z,22.20
2022-07-28T19:12:40.500Z,21.90
2022-07-28T19:15:14.382Z,21.80
2022-07-28T19:17:47.393Z,21.60
2022-07-28T19:20:40.377Z,21.40
2022-07-28T19:23:13.341Z,21.20
2022-07-28T19:25:40.131Z,21.00
2022-07-28T19:28:07.233Z,20.90
2022-07-28T19:30:41.387Z,20.80
2022-07-28T19:33:09.577Z,20.60
2022-07-28T19:35:43.353Z,20.60
2022-07-28T19:38:16.449Z,20.40
2022-07-28T19:40:49.372Z,20.30
2022-07-28T19:43:16.204Z,20.20
2022-07-28T19:45:49.403Z,20.10
2022-07-28T19:48:16.073Z,20.00
2022-07-28T19:50:51.392Z,20.00
2022-07-28T19:53:25.240Z,19.90
2022-07-28T19:56:05.347Z,19.80
2022-07-28T19:58:35.873Z,19.80
2022-07-28T20:01:10.375Z,19.70
2022-07-28T20:04:03.693Z,19.70
2022-07-28T20:06:36.355Z,19.60
2022-07-28T20:09:10.510Z,19.50
2022-07-28T20:11:45.308Z,19.40
2022-07-28T20:14:12.263Z,19.40
2022-07-28T20:16:46.461Z,19.30
2022-07-28T20:19:13.423Z,19.30
2022-07-28T20:21:40.030Z,19.20
2022-07-28T20:24:13.734Z,19.20
2022-07-28T20:26:40.667Z,19.10
2022-07-28T20:29:14.361Z,19.10
2022-07-28T20:31:41.215Z,19.00
2022-07-28T20:34:10.013Z,18.90
2022-07-28T20:36:43.317Z,18.90
2022-07-28T20:39:27.924Z,18.80
2022-07-28T20:42:03.344Z,18.70
2022-07-28T20:44:30.666Z,18.70
2022-07-28T20:47:08.328Z,18.60
2022-07-28T20:49:41.380Z,18.60
2022-07-28T20:52:08.032Z,18.60
2022-07-28T20:54:34.908Z,18.50
2022-07-28T20:57:08.317Z,18.50
2022-07-28T20:59:34.931Z,18.40
2022-07-28T21:02:08.379Z,18.40
2022-07-28T21:04:35.214Z,18.40
2022-07-28T21:07:15.366Z,18.30
2022-07-28T21:09:42.311Z,18.20
2022-07-28T21:12:09.207Z,18.20
2022-07-28T21:14:49.351Z,18.10
2022-07-28T21:17:22.369Z,18.10
2022-07-28T21:19:55.759Z,18.10
2022-07-28T21:22:22.920Z,18.00
2022-07-28T21:24:54.904Z,18.10
2022-07-28T21:27:29.349Z,18.00
2022-07-28T21:32:28.348Z,18.00
2022-07-28T21:34:55.237Z,18.00
2022-07-28T21:37:21.870Z,17.90
2022-07-28T21:39:55.345Z,17.90
2022-07-28T21:42:28.337Z,17.80
2022-07-28T21:44:54.972Z,17.80
2022-07-28T21:47:28.335Z,17.80
2022-07-28T21:50:00.714Z,17.70
2022-07-28T21:52:27.349Z,17.70
2022-07-28T21:55:00.334Z,17.70
2022-07-28T21:57:33.353Z,17.60
2022-07-28T22:00:00.354Z,17.50
2022-07-28T22:02:33.344Z,17.50
2022-07-28T22:05:07.416Z,17.50
2022-07-28T22:07:40.339Z,17.40
2022-07-28T22:10:13.412Z,17.30
2022-07-28T22:12:48.352Z,17.30
2022-07-28T22:15:15.158Z,17.30
2022-07-28T22:17:49.363Z,17.30
2022-07-28T22:20:16.031Z,17.20
2022-07-28T22:22:42.735Z,17.20
2022-07-28T22:25:16.350Z,17.20
2022-07-28T22:27:43.261Z,17.10
2022-07-28T22:30:16.402Z,17.00
2022-07-28T22:32:43.051Z,17.00
2022-07-28T22:35:10.754Z,17.00
2022-07-28T22:37:44.360Z,16.90
2022-07-28T22:40:11.993Z,16.80
2022-07-28T22:42:39.004Z,16.90
2022-07-28T22:45:13.367Z,16.80
2022-07-28T22:47:40.048Z,16.80
2022-07-28T22:50:15.507Z,16.70
2022-07-28T22:52:48.345Z,16.70
2022-07-28T22:55:15.012Z,16.60
2022-07-28T22:57:44.039Z,16.50
2022-07-28T23:00:18.585Z,16.50
2022-07-28T23:02:46.340Z,16.40
2022-07-28T23:05:13.914Z,16.40
2022-07-28T23:07:53.406Z,16.30
2022-07-28T23:10:30.787Z,16.30
2022-07-28T23:13:05.329Z,16.30
2022-07-28T23:15:40.557Z,16.20
2022-07-28T23:18:18.368Z,16.20
2022-07-28T23:20:45.144Z,16.10
2022-07-28T23:23:12.645Z,16.00
2022-07-28T23:25:49.355Z,16.00
2022-07-28T23:28:16.027Z,16.00
2022-07-28T23:30:42.798Z,15.90
2022-07-28T23:33:56.469Z,15.90
2022-07-28T23:36:04.680Z,16.00
2022-07-28T23:38:37.392Z,15.90
2022-07-28T23:41:09.598Z,15.90
2022-07-28T23:43:36.214Z,15.90
2022-07-28T23:46:09.351Z,15.80
2022-07-28T23:48:36.084Z,15.80
2022-07-28T23:51:09.341Z,15.80
2022-07-28T23:53:41.105Z,15.70
2022-07-28T23:56:16.342Z,15.70
2022-07-28T23:58:43.008Z,15.70
